createdAt,value
2018-10-04T00:01:50.610Z,82.80
2018-10-04T00:04:19.708Z,82.90
2018-10-04T00:06:48.746Z,83.10
2018-10-04T00:09:17.897Z,83.10
2018-10-04T00:11:46.944Z,83.10
2018-10-04T00:14:16.123Z,83.20
2018-10-04T00:16:45.239Z,83.20
2018-10-04T00:19:14.394Z,83.30
2018-10-04T00:21:43.348Z,83.30
2018-10-04T00:24:12.462Z,83.40
2018-10-04T00:26:41.558Z,83.60
2018-10-04T00:29:10.667Z,83.60
2018-10-04T00:31:39.938Z,83.70
2018-10-04T00:34:09.174Z,83.90
2018-10-04T00:36:38.326Z,83.90
2018-10-04T00:39:07.823Z,84.00
2018-10-04T00:41:37.043Z,84.10
2018-10-04T00:44:06.182Z,84.10
2018-10-04T00:46:35.252Z,84.20
2018-10-04T00:49:04.384Z,84.10
2018-10-04T00:51:33.502Z,84.20
2018-10-04T00:54:02.577Z,84.20
2018-10-04T00:56:31.723Z,84.30
2018-10-04T00:59:00.819Z,84.30
2018-10-04T01:01:29.977Z,84.40
2018-10-04T01:03:59.142Z,84.50
2018-10-04T01:06:28.253Z,84.50
2018-10-04T01:08:57.334Z,84.40
2018-10-04T01:11:26.485Z,84.50
2018-10-04T01:13:55.626Z,84.50
2018-10-04T01:16:24.778Z,84.60
2018-10-04T01:18:56.754Z,84.70
2018-10-04T01:21:25.865Z,84.80
2018-10-04T01:23:55.389Z,84.80
2018-10-04T01:26:24.597Z,84.80
2018-10-04T01:28:53.708Z,84.80
2018-10-04T01:31:23.336Z,84.90
2018-10-04T01:33:52.493Z,85.00
2018-10-04T01:36:21.658Z,85.00
2018-10-04T01:38:51.033Z,84.90
2018-10-04T01:41:20.154Z,85.00
2018-10-04T01:43:49.224Z,85.20
2018-10-04T01:46:18.254Z,85.20
2018-10-04T01:48:47.363Z,85.20
2018-10-04T01:51:16.479Z,85.20
2018-10-04T01:53:45.569Z,85.20
2018-10-04T01:56:14.722Z,85.10
2018-10-04T01:58:43.821Z,85.10
2018-10-04T02:01:12.949Z,85.10
2018-10-04T02:03:42.069Z,85.90
2018-10-04T02:06:11.155Z,85.20
2018-10-04T02:08:40.310Z,85.40
2018-10-04T02:11:09.450Z,85.50
2018-10-04T02:13:38.577Z,85.60
2018-10-04T02:16:07.867Z,85.50
2018-10-04T02:18:36.890Z,85.60
2018-10-04T02:21:06.006Z,85.70
2018-10-04T02:23:35.114Z,86.50
2018-10-04T02:26:04.257Z,85.80
2018-10-04T02:28:33.378Z,85.80
2018-10-04T02:31:02.514Z,85.90
2018-10-04T02:33:31.639Z,85.90
2018-10-04T02:36:00.790Z,85.90
2018-10-04T02:38:29.854Z,85.90
2018-10-04T02:40:58.930Z,85.90
2018-10-04T02:43:28.012Z,85.90
2018-10-04T02:45:57.030Z,85.90
2018-10-04T02:48:26.109Z,85.80
2018-10-04T02:50:55.251Z,85.80
2018-10-04T02:53:24.334Z,85.80
2018-10-04T02:55:58.483Z,85.90
2018-10-04T02:58:27.538Z,85.90
2018-10-04T03:00:56.655Z,85.90
2018-10-04T03:03:25.800Z,85.80
2018-10-04T03:05:54.950Z,85.90
2018-10-04T03:08:24.105Z,85.90
2018-10-04T03:10:53.272Z,85.90
2018-10-04T03:13:22.427Z,85.90
2018-10-04T03:15:51.526Z,86.00
2018-10-04T03:18:20.710Z,86.70
2018-10-04T03:20:49.798Z,86.00
2018-10-04T03:23:18.953Z,86.10
2018-10-04T03:25:48.050Z,86.20
2018-10-04T03:28:17.200Z,86.10
2018-10-04T03:30:46.282Z,86.10
2018-10-04T03:33:15.463Z,86.20
2018-10-04T03:35:44.533Z,86.30
2018-10-04T03:38:13.711Z,86.20
2018-10-04T03:40:42.829Z,86.20
2018-10-04T03:43:11.928Z,86.30
2018-10-04T03:45:41.070Z,86.40
2018-10-04T03:48:10.186Z,86.40
2018-10-04T03:50:39.270Z,86.40
2018-10-04T03:53:08.494Z,86.50
2018-10-04T03:55:37.847Z,86.50
2018-10-04T03:58:07.028Z,86.30
2018-10-04T04:00:36.137Z,86.30
2018-10-04T04:03:05.529Z,86.30
2018-10-04T04:05:34.717Z,86.50
2018-10-04T04:08:03.870Z,86.40
2018-10-04T04:10:33.009Z,86.50
2018-10-04T04:13:02.102Z,86.60
2018-10-04T04:15:31.237Z,86.60
2018-10-04T04:18:00.334Z,86.50
2018-10-04T04:20:29.446Z,86.50
2018-10-04T04:22:58.598Z,86.60
2018-10-04T04:25:27.745Z,86.60
2018-10-04T04:27:56.871Z,86.80
2018-10-04T04:30:26.002Z,86.70
2018-10-04T04:32:55.218Z,86.80
2018-10-04T04:35:24.270Z,86.90
2018-10-04T04:37:53.459Z,86.90
2018-10-04T04:40:22.649Z,86.90
2018-10-04T04:42:51.758Z,86.80
2018-10-04T04:45:20.875Z,86.80
2018-10-04T04:47:49.986Z,86.90
2018-10-04T04:50:19.187Z,87.00
2018-10-04T04:52:48.413Z,87.10
2018-10-04T04:55:22.721Z,87.10
2018-10-04T04:57:53.066Z,87.10
2018-10-04T05:00:23.411Z,87.10
2018-10-04T05:02:53.068Z,87.10
2018-10-04T05:05:22.534Z,87.20
2018-10-04T05:07:53.170Z,87.20
2018-10-04T05:10:23.018Z,87.20
2018-10-04T05:12:52.427Z,87.20
2018-10-04T05:15:21.582Z,87.40
2018-10-04T05:17:50.706Z,88.10
2018-10-04T05:20:19.769Z,87.30
2018-10-04T05:22:48.845Z,87.40
2018-10-04T05:25:18.075Z,87.40
2018-10-04T05:27:47.303Z,87.50
2018-10-04T05:30:16.391Z,87.50
2018-10-04T05:32:45.491Z,87.50
2018-10-04T05:35:14.646Z,87.50
2018-10-04T05:37:43.706Z,87.50
2018-10-04T05:40:12.901Z,87.50
2018-10-04T05:42:41.990Z,87.40
2018-10-04T05:45:11.217Z,87.50
2018-10-04T05:47:40.318Z,87.40
2018-10-04T05:50:09.429Z,87.50
2018-10-04T05:52:38.538Z,87.50
2018-10-04T05:55:07.774Z,87.60
2018-10-04T05:57:36.893Z,87.70
2018-10-04T06:00:17.144Z,87.70
2018-10-04T06:02:46.324Z,87.70
2018-10-04T06:05:15.480Z,87.70
2018-10-04T06:07:44.625Z,87.90
2018-10-04T06:10:13.806Z,87.90
2018-10-04T06:12:42.968Z,87.90
2018-10-04T06:15:12.173Z,87.90
2018-10-04T06:17:41.398Z,87.90
2018-10-04T06:20:10.577Z,88.00
2018-10-04T06:22:39.782Z,88.00
2018-10-04T06:25:08.501Z,88.00
2018-10-04T06:27:37.590Z,88.20
2018-10-04T06:30:06.978Z,88.20
2018-10-04T06:32:36.125Z,88.20
2018-10-04T06:35:05.446Z,88.30
2018-10-04T06:37:34.586Z,88.30
2018-10-04T06:40:03.900Z,88.50
2018-10-04T06:42:33.441Z,88.70
2018-10-04T06:45:02.608Z,88.80
2018-10-04T06:47:31.711Z,88.80
2018-10-04T06:50:00.857Z,88.90
2018-10-04T06:52:29.998Z,88.90
2018-10-04T06:54:59.082Z,89.10
2018-10-04T06:57:28.137Z,89.10
2018-10-04T06:59:57.312Z,89.10
2018-10-04T07:02:26.458Z,89.00
2018-10-04T07:04:55.585Z,89.10
2018-10-04T07:07:24.841Z,89.10
2018-10-04T07:09:54.148Z,89.00
2018-10-04T07:12:23.284Z,89.00
2018-10-04T07:14:52.413Z,88.90
2018-10-04T07:17:21.562Z,89.10
2018-10-04T07:19:50.950Z,89.00
2018-10-04T07:22:20.082Z,88.90
2018-10-04T07:24:49.431Z,88.70
2018-10-04T07:27:18.593Z,88.80
2018-10-04T07:29:47.689Z,88.60
2018-10-04T07:32:17.912Z,88.40
2018-10-04T07:34:47.288Z,88.20
2018-10-04T07:37:16.413Z,87.90
2018-10-04T07:39:45.747Z,87.80
2018-10-04T07:42:14.939Z,87.30
2018-10-04T07:44:43.877Z,87.30
2018-10-04T07:47:13.462Z,87.00
2018-10-04T07:49:42.637Z,86.50
2018-10-04T07:52:11.802Z,86.40
2018-10-04T07:54:40.889Z,85.60
2018-10-04T07:57:09.984Z,85.00
2018-10-04T07:59:39.033Z,84.60
2018-10-04T08:02:08.122Z,84.00
2018-10-04T08:04:37.271Z,83.40
2018-10-04T08:07:06.490Z,82.90
2018-10-04T08:09:35.494Z,82.30
2018-10-04T08:12:04.661Z,81.60
2018-10-04T08:14:33.711Z,80.90
2018-10-04T08:17:02.726Z,80.30
2018-10-04T08:19:31.778Z,78.00
2018-10-04T08:22:00.931Z,78.30
2018-10-04T08:24:30.018Z,77.90
2018-10-04T08:26:59.138Z,77.30
2018-10-04T08:29:28.256Z,76.70
2018-10-04T08:31:57.552Z,76.00
2018-10-04T08:34:26.553Z,75.50
2018-10-04T08:36:55.679Z,75.00
2018-10-04T08:39:24.773Z,74.40
2018-10-04T08:41:53.887Z,73.90
2018-10-04T08:44:23.318Z,73.50
2018-10-04T08:46:52.366Z,73.10
2018-10-04T08:49:22.349Z,72.70
2018-10-04T08:51:52.194Z,72.40
2018-10-04T08:54:26.522Z,71.80
2018-10-04T08:56:56.741Z,71.30
2018-10-04T08:59:25.872Z,70.60
2018-10-04T09:01:55.709Z,70.00
2018-10-04T09:04:24.786Z,69.50
2018-10-04T09:06:53.878Z,69.00
2018-10-04T09:09:23.040Z,68.50
2018-10-04T09:11:52.199Z,68.00
2018-10-04T09:14:21.299Z,67.40
2018-10-04T09:16:50.390Z,66.80
2018-10-04T09:19:19.551Z,66.20
2018-10-04T09:21:48.681Z,65.70
2018-10-04T09:24:17.698Z,65.20
2018-10-04T09:26:46.775Z,64.70
2018-10-04T09:29:15.838Z,64.50
2018-10-04T09:31:52.212Z,64.30
2018-10-04T09:34:21.538Z,64.30
2018-10-04T09:36:50.553Z,64.30
2018-10-04T09:39:19.618Z,64.20
2018-10-04T09:41:48.769Z,64.00
2018-10-04T09:44:17.866Z,64.00
2018-10-04T09:46:46.940Z,63.60
2018-10-04T09:49:16.129Z,63.50
2018-10-04T09:51:50.354Z,63.50
2018-10-04T09:54:24.694Z,63.50
2018-10-04T09:56:53.783Z,63.30
2018-10-04T09:59:22.874Z,63.10
2018-10-04T10:01:57.074Z,63.10
2018-10-04T10:04:26.178Z,62.80
2018-10-04T10:06:55.288Z,62.40
2018-10-04T10:09:41.129Z,62.10
2018-10-04T10:12:10.820Z,61.90
2018-10-04T10:14:40.388Z,61.70
2018-10-04T10:17:26.025Z,61.50
2018-10-04T10:19:56.804Z,61.00
2018-10-04T10:22:25.854Z,60.70
2018-10-04T10:24:54.980Z,60.40
2018-10-04T10:27:24.356Z,59.90
2018-10-04T10:29:53.378Z,59.90
2018-10-04T10:32:22.440Z,60.00
2018-10-04T10:34:52.407Z,59.60
2018-10-04T10:37:21.450Z,59.20
2018-10-04T10:39:50.741Z,58.80
2018-10-04T10:42:20.059Z,58.60
2018-10-04T10:44:49.340Z,58.40
2018-10-04T10:47:19.130Z,58.10
2018-10-04T10:49:48.308Z,57.90
2018-10-04T10:52:17.516Z,57.70
2018-10-04T10:54:46.754Z,57.40
2018-10-04T10:57:15.803Z,57.20
2018-10-04T10:59:45.137Z,56.90
2018-10-04T11:02:14.502Z,56.20
2018-10-04T11:04:44.258Z,55.70
2018-10-04T11:07:13.562Z,55.50
2018-10-04T11:09:42.942Z,55.20
2018-10-04T11:12:12.079Z,55.50
2018-10-04T11:14:41.150Z,54.70
2018-10-04T11:17:10.407Z,54.50
2018-10-04T11:19:39.575Z,54.10
2018-10-04T11:22:08.792Z,54.30
2018-10-04T11:24:37.958Z,53.40
2018-10-04T11:27:07.162Z,53.30
2018-10-04T11:29:36.306Z,52.80
2018-10-04T11:32:05.661Z,52.70
2018-10-04T11:34:36.348Z,52.30
2018-10-04T11:37:06.696Z,51.80
2018-10-04T11:39:36.070Z,51.40
2018-10-04T11:42:05.302Z,50.70
2018-10-04T11:44:38.726Z,50.40
2018-10-04T11:47:11.673Z,50.30
2018-10-04T11:49:40.866Z,50.30
2018-10-04T11:52:11.431Z,49.70
2018-10-04T11:54:40.789Z,49.40
2018-10-04T11:57:09.829Z,49.20
2018-10-04T11:59:38.947Z,49.00
2018-10-04T12:02:08.066Z,48.60
2018-10-04T12:04:37.197Z,48.30
2018-10-04T12:07:06.484Z,48.70
2018-10-04T12:09:35.609Z,48.60
2018-10-04T12:12:04.747Z,48.20
2018-10-04T12:14:33.898Z,48.20
2018-10-04T12:17:03.106Z,48.00
2018-10-04T12:19:32.322Z,47.60
2018-10-04T12:22:01.529Z,47.60
2018-10-04T12:24:30.670Z,47.40
2018-10-04T12:26:59.810Z,46.90
2018-10-04T12:29:28.854Z,46.30
2018-10-04T12:31:58.032Z,45.80
2018-10-04T12:34:27.083Z,45.40
2018-10-04T12:36:56.181Z,45.40
2018-10-04T12:39:25.290Z,45.50
2018-10-04T12:41:54.434Z,45.30
2018-10-04T12:44:23.545Z,44.80
2018-10-04T12:46:52.718Z,44.40
2018-10-04T12:49:21.889Z,44.00
2018-10-04T12:51:50.994Z,43.80
2018-10-04T12:54:20.131Z,43.50
2018-10-04T12:56:49.236Z,43.10
2018-10-04T12:59:18.902Z,43.10
2018-10-04T13:01:47.977Z,42.80
2018-10-04T13:04:17.270Z,42.50
2018-10-04T13:06:46.586Z,42.40
2018-10-04T13:09:31.571Z,42.30
2018-10-04T13:12:00.690Z,42.30
2018-10-04T13:14:29.856Z,42.30
2018-10-04T13:16:59.185Z,42.10
2018-10-04T13:19:28.365Z,41.90
2018-10-04T13:21:57.472Z,41.90
2018-10-04T13:24:26.574Z,41.60
2018-10-04T13:26:55.744Z,41.60
2018-10-04T13:29:24.874Z,42.00
2018-10-04T13:31:54.143Z,41.90
2018-10-04T13:34:23.218Z,41.90
2018-10-04T13:36:52.416Z,41.90
2018-10-04T13:39:21.558Z,41.70
2018-10-04T13:41:50.673Z,41.40
2018-10-04T13:44:19.695Z,41.40
2018-10-04T13:46:48.823Z,41.50
2018-10-04T13:49:18.040Z,41.50
2018-10-04T13:51:47.334Z,41.50
2018-10-04T13:54:16.449Z,41.40
2018-10-04T13:56:45.541Z,41.30
2018-10-04T13:59:14.724Z,41.50
2018-10-04T14:01:43.826Z,41.80
2018-10-04T14:04:12.943Z,41.60
2018-10-04T14:06:42.250Z,41.60
2018-10-04T14:09:11.405Z,41.60
2018-10-04T14:11:40.558Z,41.70
2018-10-04T14:14:09.670Z,41.60
2018-10-04T14:16:38.883Z,41.80
2018-10-04T14:19:07.970Z,41.70
2018-10-04T14:21:37.140Z,42.10
2018-10-04T14:24:06.286Z,42.50
2018-10-04T14:26:35.393Z,42.60
2018-10-04T14:29:04.519Z,42.70
2018-10-04T14:31:33.683Z,43.00
2018-10-04T14:34:02.831Z,43.00
2018-10-04T14:36:31.914Z,42.90
2018-10-04T14:39:01.070Z,43.60
2018-10-04T14:41:30.203Z,43.20
2018-10-04T14:43:59.304Z,43.20
2018-10-04T14:46:28.456Z,42.90
2018-10-04T14:48:57.682Z,42.60
2018-10-04T14:51:26.763Z,42.80
2018-10-04T14:53:55.932Z,43.80
2018-10-04T14:56:25.018Z,43.10
2018-10-04T14:58:54.585Z,42.90
2018-10-04T15:01:23.662Z,42.90
2018-10-04T15:03:52.829Z,42.90
2018-10-04T15:06:21.979Z,43.00
2018-10-04T15:08:51.141Z,43.40
2018-10-04T15:11:20.332Z,43.70
2018-10-04T15:13:49.406Z,43.90
2018-10-04T15:16:18.577Z,44.30
2018-10-04T15:18:47.703Z,44.30
2018-10-04T15:21:16.766Z,43.70
2018-10-04T15:23:45.879Z,43.80
2018-10-04T15:26:15.062Z,42.80
2018-10-04T15:28:44.239Z,42.60
2018-10-04T15:31:13.279Z,42.60
2018-10-04T15:33:43.517Z,42.60
2018-10-04T15:36:13.029Z,42.60
2018-10-04T15:38:42.138Z,42.80
2018-10-04T15:41:12.090Z,43.60
2018-10-04T15:43:41.482Z,44.50
2018-10-04T15:46:10.654Z,44.60
2018-10-04T15:48:39.813Z,44.80
2018-10-04T15:51:08.986Z,45.40
2018-10-04T15:53:38.150Z,45.90
2018-10-04T15:56:07.306Z,46.30
2018-10-04T15:58:36.708Z,46.80
2018-10-04T16:01:05.874Z,47.20
2018-10-04T16:03:35.022Z,47.80
2018-10-04T16:06:04.150Z,48.40
2018-10-04T16:08:33.436Z,49.10
2018-10-04T16:11:02.486Z,49.70
2018-10-04T16:13:31.705Z,50.30
2018-10-04T16:16:00.792Z,50.90
2018-10-04T16:18:30.074Z,51.50
2018-10-04T16:20:59.141Z,51.80
2018-10-04T16:23:28.209Z,52.00
2018-10-04T16:25:57.338Z,52.60
2018-10-04T16:28:26.440Z,52.80
2018-10-04T16:30:55.559Z,53.60
2018-10-04T16:33:24.677Z,54.40
2018-10-04T16:35:53.846Z,54.90
2018-10-04T16:38:23.744Z,55.20
2018-10-04T16:40:52.754Z,55.40
2018-10-04T16:43:21.926Z,55.50
2018-10-04T16:45:51.347Z,55.70
2018-10-04T16:48:24.734Z,56.00
2018-10-04T16:50:53.993Z,56.10
2018-10-04T16:53:23.389Z,57.00
2018-10-04T16:55:52.452Z,56.70
2018-10-04T16:58:21.846Z,57.10
2018-10-04T17:00:51.145Z,57.20
2018-10-04T17:03:20.302Z,57.50
2018-10-04T17:05:50.024Z,57.80
2018-10-04T17:08:19.540Z,58.10
2018-10-04T17:10:48.661Z,58.60
2018-10-04T17:13:36.579Z,58.80
2018-10-04T17:16:05.646Z,59.10
2018-10-04T17:18:34.966Z,59.40
2018-10-04T17:21:04.506Z,59.30
2018-10-04T17:23:33.637Z,59.80
2018-10-04T17:26:02.730Z,60.10
2018-10-04T17:28:31.830Z,60.10
2018-10-04T17:31:00.926Z,60.10
2018-10-04T17:33:30.023Z,60.40
2018-10-04T17:35:59.114Z,60.70
2018-10-04T17:38:28.182Z,60.80
2018-10-04T17:40:57.598Z,61.10
2018-10-04T17:43:26.654Z,61.20
2018-10-04T17:45:55.761Z,61.60
2018-10-04T17:48:24.781Z,62.10
2018-10-04T17:50:53.962Z,62.50
2018-10-04T17:53:23.001Z,62.60
2018-10-04T17:55:52.006Z,62.70
2018-10-04T17:58:21.077Z,62.90
2018-10-04T18:00:50.190Z,63.30
2018-10-04T18:03:19.297Z,63.20
2018-10-04T18:05:48.422Z,63.70
2018-10-04T18:08:20.101Z,64.00
2018-10-04T18:10:49.271Z,64.30
2018-10-04T18:13:18.347Z,64.80
2018-10-04T18:15:47.426Z,65.00
2018-10-04T18:18:16.521Z,65.20
2018-10-04T18:20:45.630Z,65.50
2018-10-04T18:23:14.757Z,65.60
2018-10-04T18:25:44.143Z,65.50
2018-10-04T18:28:16.455Z,65.50
2018-10-04T18:30:45.524Z,65.70
2018-10-04T18:33:14.734Z,65.90
2018-10-04T18:35:43.891Z,66.10
2018-10-04T18:38:12.994Z,66.30
2018-10-04T18:40:42.148Z,66.60
2018-10-04T18:43:11.123Z,66.80
2018-10-04T18:45:40.677Z,67.20
2018-10-04T18:48:10.217Z,67.50
2018-10-04T18:50:39.911Z,67.60
2018-10-04T18:53:08.996Z,67.70
2018-10-04T18:55:37.980Z,68.10
2018-10-04T18:58:07.043Z,68.10
2018-10-04T19:00:36.150Z,68.40
2018-10-04T19:03:05.294Z,68.60
2018-10-04T19:05:34.496Z,68.90
2018-10-04T19:08:03.582Z,69.10
2018-10-04T19:10:32.700Z,69.40
2018-10-04T19:13:01.802Z,69.50
2018-10-04T19:15:30.906Z,69.70
2018-10-04T19:18:00.057Z,69.80
2018-10-04T19:20:29.163Z,70.10
2018-10-04T19:22:58.300Z,71.60
2018-10-04T19:25:27.437Z,71.70
2018-10-04T19:28:02.528Z,71.70
2018-10-04T19:30:31.511Z,71.90
2018-10-04T19:33:00.732Z,72.10
2018-10-04T19:35:29.803Z,72.30
2018-10-04T19:37:58.859Z,72.40
2018-10-04T19:40:28.107Z,72.60
2018-10-04T19:42:57.242Z,72.80
2018-10-04T19:45:26.845Z,73.10
2018-10-04T19:47:56.090Z,73.20
2018-10-04T19:50:25.266Z,73.40
2018-10-04T19:52:54.342Z,73.60
2018-10-04T19:55:24.537Z,73.70
2018-10-04T19:57:53.814Z,74.00
2018-10-04T20:00:22.915Z,74.20
2018-10-04T20:02:52.062Z,74.70
2018-10-04T20:05:21.135Z,74.50
2018-10-04T20:11:01.468Z,74.80
2018-10-04T20:13:30.513Z,74.80
2018-10-04T20:15:59.658Z,74.80
2018-10-04T20:18:28.662Z,74.90
2018-10-04T20:20:58.187Z,75.00
2018-10-04T20:23:27.243Z,75.10
2018-10-04T20:25:56.425Z,75.20
2018-10-04T20:28:25.540Z,75.40
2018-10-04T20:30:54.811Z,75.50
2018-10-04T20:33:23.956Z,75.60
2018-10-04T20:35:53.087Z,75.70
2018-10-04T20:38:22.180Z,75.80
2018-10-04T20:40:51.271Z,75.90
2018-10-04T20:43:21.851Z,76.20
2018-10-04T20:45:51.054Z,76.20
2018-10-04T20:48:20.285Z,76.50
2018-10-04T20:50:49.394Z,76.60
2018-10-04T20:53:18.581Z,76.80
2018-10-04T20:55:48.696Z,77.00
2018-10-04T20:58:17.983Z,77.30
2018-10-04T21:00:47.982Z,77.50
2018-10-04T21:03:17.122Z,77.40
2018-10-04T21:05:46.469Z,77.40
2018-10-04T21:08:15.555Z,77.40
2018-10-04T21:10:44.733Z,77.30
2018-10-04T21:13:13.896Z,77.40
2018-10-04T21:15:43.139Z,77.80
2018-10-04T21:18:12.307Z,78.10
2018-10-04T21:20:41.421Z,78.30
2018-10-04T21:23:10.556Z,78.30
2018-10-04T21:25:39.630Z,78.40
2018-10-04T21:28:08.795Z,78.30
2018-10-04T21:30:38.175Z,78.40
2018-10-04T21:33:07.262Z,78.60
2018-10-04T21:35:36.329Z,78.70
2018-10-04T21:38:05.619Z,78.90
2018-10-04T21:40:34.654Z,78.90
2018-10-04T21:43:04.204Z,79.10
2018-10-04T21:45:33.345Z,79.10
2018-10-04T21:48:02.462Z,79.30
2018-10-04T21:50:31.613Z,79.30
2018-10-04T21:53:00.821Z,79.50
2018-10-04T21:55:29.881Z,79.70
2018-10-04T21:58:01.226Z,79.80
2018-10-04T22:00:30.861Z,80.00
2018-10-04T22:03:00.050Z,80.20
2018-10-04T22:05:29.438Z,80.20
2018-10-04T22:11:07.361Z,80.50
2018-10-04T22:13:36.507Z,80.40
2018-10-04T22:16:05.606Z,80.50
2018-10-04T22:18:34.751Z,80.60
2018-10-04T22:21:04.310Z,80.70
2018-10-04T22:23:33.498Z,80.90
2018-10-04T22:26:02.614Z,81.00
2018-10-04T22:28:31.730Z,81.20
2018-10-04T22:31:00.783Z,81.40
2018-10-04T22:33:29.898Z,81.50
2018-10-04T22:35:59.021Z,81.80
2018-10-04T22:38:28.115Z,81.90
2018-10-04T22:40:57.250Z,81.90
2018-10-04T22:43:26.373Z,82.00
2018-10-04T22:45:55.454Z,81.90
2018-10-04T22:48:24.653Z,82.10
2018-10-04T22:50:53.794Z,82.20
2018-10-04T22:53:22.986Z,83.00
2018-10-04T22:55:52.180Z,82.20
2018-10-04T22:58:21.921Z,82.30
2018-10-04T23:00:51.101Z,82.40
2018-10-04T23:03:20.292Z,82.40
2018-10-04T23:05:49.406Z,82.50
2018-10-04T23:08:18.545Z,82.50
2018-10-04T23:10:47.693Z,82.60
2018-10-04T23:13:16.873Z,82.70
2018-10-04T23:15:45.857Z,82.80
2018-10-04T23:18:15.582Z,82.80
2018-10-04T23:20:44.622Z,82.80
2018-10-04T23:23:13.717Z,82.80
2018-10-04T23:25:42.818Z,82.90
2018-10-04T23:28:11.988Z,83.10
2018-10-04T23:30:41.014Z,83.10
2018-10-04T23:33:10.140Z,83.20
2018-10-04T23:35:39.253Z,83.30
2018-10-04T23:38:08.366Z,83.40
2018-10-04T23:40:37.471Z,83.40
2018-10-04T23:43:06.562Z,83.60
2018-10-04T23:45:35.723Z,83.50
2018-10-04T23:48:04.878Z,83.50
2018-10-04T23:50:34.030Z,83.60
2018-10-04T23:53:03.173Z,83.60
2018-10-04T23:55:32.307Z,83.70
2018-10-04T23:58:01.438Z,83.70
